Date,TemperatureHighF,TemperatureAvgF,TemperatureLowF,DewpointHighF,DewpointAvgF,DewpointLowF,HumidityHigh,HumidityAvg,HumidityLow,PressureMaxIn,PressureMinIn,WindSpeedMaxMPH,WindSpeedAvgMPH,GustSpeedMaxMPH,PrecipitationSumIn
2013-1-1,43.0,39.6,32.0,42.0,38.1,29.0,97,94,89,30.23,30.03,3,0,7,0.64
2013-1-2,36.0,30.2,24.0,29.0,24.0,21.0,90,78,58,30.30,30.21,2,0,4,0.01
2013-1-3,48.0,33.3,22.0,30.0,25.7,20.0,96,75,42,30.45,30.29,1,0,6,0.00
2013-1-4,51.0,34.5,24.0,32.0,27.3,23.0,96,78,41,30.53,30.41,2,0,5,0.00
2013-1-5,45.0,37.2,27.0,37.0,31.1,26.0,94,80,61,30.43,30.29,1,0,6,0.00
2013-1-6,53.0,40.3,29.0,38.0,34.4,26.0,97,81,47,30.41,30.25,2,0,8,0.00
2013-1-7,55.0,35.0,23.0,31.0,26.3,21.0,96,75,32,30.46,30.24,5,0,9,0.00
2013-1-8,59.0,43.9,29.0,44.0,34.5,26.0,91,72,46,30.30,30.18,2,0,5,0.00
2013-1-9,56.0,54.5,53.0,54.0,51.6,45.0,97,90,72,30.33,30.23,4,2,9,0.95
2013-1-10,68.0,61.7,55.0,64.0,59.9,54.0,98,94,85,30.31,29.91,5,2,16,1.42
2013-1-11,69.0,61.6,54.0,62.0,54.1,49.0,97,78,49,30.07,29.95,4,1,15,0.14
2013-1-12,72.0,68.2,63.0,68.0,65.4,61.0,97,91,82,29.98,29.77,3,1,13,0.26
2013-1-13,70.0,44.4,31.0,65.0,42.1,28.0,95,92,82,30.29,29.77,6,1,14,2.99
2013-1-14,31.0,28.5,27.0,28.0,24.9,23.0,91,87,78,30.42,30.27,6,1,13,0.03
2013-1-15,31.0,29.0,26.0,30.0,26.9,23.0,95,92,89,30.29,30.10,5,0,11,0.00
2013-1-16,33.0,31.6,30.0,31.0,29.8,28.0,95,93,91,30.20,30.08,0,0,2,0.00
2013-1-17,49.0,37.6,32.0,38.0,32.5,28.0,94,82,62,30.49,30.14,2,0,10,0.11
2013-1-18,58.0,37.1,24.0,32.0,27.3,23.0,97,72,30,30.60,30.37,1,0,4,0.01
2013-1-19,60.0,46.4,35.0,36.0,32.3,29.0,80,60,34,30.37,30.20,4,1,11,0.00
2013-1-20,64.0,45.6,31.0,38.0,32.0,27.0,97,63,30,30.29,30.18,5,0,10,0.00
2013-1-21,46.0,35.0,25.0,28.0,21.0,17.0,83,58,34,30.38,30.19,2,0,11,0.00
2013-1-22,42.0,31.4,23.0,22.0,18.1,15.0,90,60,36,30.46,30.34,5,1,10,0.00
2013-1-23,57.0,39.4,26.0,37.0,29.4,19.0,86,69,47,30.37,30.19,3,0,7,0.00
2013-1-24,42.0,38.8,35.0,38.0,24.6,19.0,93,58,43,30.46,30.23,8,2,16,0.00
2013-1-25,49.0,39.8,32.0,45.0,33.3,21.0,95,80,45,30.27,30.04,2,0,7,0.15
2013-1-26,57.0,41.8,30.0,39.0,32.8,29.0,97,74,42,30.36,30.27,4,1,7,0.03
2013-1-27,64.0,54.7,47.0,53.0,44.3,34.0,81,68,59,30.29,30.14,2,1,10,0.00
2013-1-28,73.0,63.8,58.0,61.0,56.9,53.0,91,79,64,30.19,30.08,4,2,14,0.01
2013-1-29,76.0,67.8,60.0,65.0,60.4,57.0,92,78,60,30.09,29.48,6,2,24,0.09
2013-1-30,70.0,49.1,35.0,64.0,42.3,26.0,96,78,59,30.05,29.50,8,2,28,1.69
2013-1-31,56.0,45.7,30.0,34.0,29.6,23.0,85,55,37,30.35,30.04,4,2,14,0.00
2013-2-1,39.0,29.9,21.0,23.0,13.3,8.0,70,51,31,30.57,30.32,3,0,8,0.00
2013-2-2,54.0,37.4,26.0,34.0,27.7,16.0,91,69,42,30.33,30.15,2,0,7,0.01
2013-2-3,56.0,45.1,35.0,35.0,30.6,25.0,90,60,31,30.21,30.12,4,1,11,0.01
2013-2-4,58.0,45.6,35.0,45.0,34.8,29.0,91,68,38,30.13,29.93,4,0,11,0.06
2013-2-5,66.0,49.7,36.0,50.0,42.9,35.0,97,80,44,30.08,29.95,2,0,6,0.06
2013-2-6,64.0,50.2,37.0,44.0,40.6,36.0,97,72,47,30.23,30.07,4,1,9,0.00
2013-2-7,70.0,57.3,43.0,55.0,47.9,37.0,93,72,55,30.07,29.89,2,0,7,0.03
2013-2-8,57.0,44.9,34.0,56.0,40.3,31.0,95,84,71,30.33,29.92,4,1,11,0.51
2013-2-9,51.0,41.4,29.0,41.0,33.4,27.0,95,75,54,30.35,30.07,6,1,11,0.01
2013-2-10,61.0,55.1,49.0,58.0,48.2,37.0,94,79,55,30.08,29.79,5,2,14,1.00
2013-2-11,62.0,51.4,45.0,53.0,34.9,28.0,88,55,29,30.22,29.97,3,0,7,0.01
2013-2-12,52.0,46.1,38.0,41.0,37.0,33.0,90,72,50,30.18,29.82,7,2,13,0.02
2013-2-13,44.0,41.4,38.0,42.0,38.3,36.0,94,89,78,30.05,29.79,1,0,7,0.08
2013-2-14,60.0,45.2,37.0,40.0,36.5,35.0,92,74,42,30.07,30.03,2,0,8,0.02
2013-2-15,57.0,45.9,35.0,40.0,33.0,26.0,92,64,34,30.22,30.07,3,0,6,0.00
2013-2-16,44.0,34.4,27.0,29.0,20.9,14.0,78,59,36,30.29,30.22,2,0,8,0.00
2013-2-17,58.0,42.9,30.0,30.0,24.5,20.0,68,50,31,30.29,30.10,4,1,11,0.00
2013-2-18,58.0,51.3,43.0,51.0,42.3,30.0,94,72,51,30.11,29.79,6,2,30,1.08
2013-2-19,51.0,42.1,31.0,42.0,29.3,23.0,87,63,35,30.29,29.96,4,1,12,1.01
2013-2-20,37.0,32.9,30.0,26.0,19.9,15.0,81,59,45,30.38,30.21,6,1,10,0.00
2013-2-21,47.0,39.0,33.0,45.0,31.4,22.0,96,75,46,30.21,29.77,5,2,13,0.74
2013-2-22,52.0,42.5,38.0,43.0,38.6,33.0,96,87,62,30.11,29.90,4,0,9,0.04
2013-2-23,56.0,39.9,29.0,33.0,30.2,27.0,94,71,38,30.09,29.97,4,0,8,0.00
2013-2-24,60.0,44.0,29.0,33.0,30.0,27.0,95,63,34,30.13,29.93,5,1,10,0.00
2013-2-25,59.0,52.0,41.0,53.0,38.6,27.0,94,62,42,29.94,29.34,7,3,17,0.46
2013-2-26,55.0,45.3,41.0,53.0,39.3,33.0,94,79,68,29.83,29.36,7,3,17,0.46
2013-2-27,41.0,40.8,40.0,34.0,32.7,31.0,75,73,71,29.86,29.83,3,2,13,0.00
2013-2-28,41.0,39.0,36.0,31.0,29.7,28.0,76,69,64,30.12,30.10,1,0,2,0.00
2013-3-1,39.0,35.9,34.0,31.0,28.9,27.0,83,76,66,30.18,30.10,2,0,5,0.00
2013-3-2,37.0,32.7,31.0,29.0,26.2,20.0,90,77,60,30.27,30.15,3,0,8,0.02
2013-3-3,51.0,36.6,21.0,27.0,22.7,19.0,94,61,30,30.26,30.09,2,0,7,0.01
2013-3-4,69.0,53.8,35.0,48.0,32.7,25.0,73,47,26,30.10,29.79,7,1,17,0.00
2013-3-5,63.0,50.6,38.0,57.0,39.5,23.0,92,67,40,30.20,29.79,6,2,18,0.40
2013-3-6,51.0,39.3,33.0,29.0,26.0,23.0,85,60,42,30.37,30.20,3,1,7,0.03
2013-3-7,57.0,42.9,31.0,32.0,30.4,27.0,89,64,37,30.42,30.30,3,1,7,0.00
2013-3-8,67.0,50.5,33.0,34.0,28.2,19.0,86,48,16,30.41,30.21,4,1,10,0.00
2013-3-9,72.0,60.1,48.0,39.0,33.7,29.0,58,38,24,30.20,29.96,3,1,10,0.00
2013-3-10,65.0,58.5,52.0,57.0,49.7,39.0,96,75,40,29.99,29.78,6,2,16,1.02
2013-3-11,53.0,43.5,40.0,52.0,37.3,32.0,95,78,69,29.96,29.85,4,2,15,1.02
2013-3-21,48.0,42.5,35.0,33.0,22.1,14.0,88,48,25,30.04,29.96,5,1,8,0.04
2013-3-22,47.0,41.6,34.0,44.0,39.2,31.0,94,91,86,30.03,29.90,4,1,8,0.42
2013-3-23,54.0,49.3,45.0,50.0,46.3,43.0,96,90,83,29.95,29.70,7,2,14,0.43
2013-3-24,51.0,46.0,37.0,50.0,40.8,27.0,97,83,64,29.97,29.55,9,3,20,0.48
2013-3-25,40.0,36.8,33.0,27.0,24.6,22.0,70,61,52,30.26,29.97,5,2,16,0.02
2013-3-26,51.0,38.8,31.0,30.0,26.2,23.0,87,62,37,30.38,30.26,3,0,12,0.00
2013-3-27,63.0,42.7,25.0,35.0,28.4,24.0,95,63,27,30.44,30.31,3,0,8,0.00
2013-3-28,71.0,52.3,34.0,39.0,34.3,31.0,94,57,25,30.38,30.24,3,0,7,0.00
2013-3-29,65.0,54.2,47.0,53.0,44.7,35.0,93,72,36,30.29,30.18,4,0,9,0.09
2013-3-30,59.0,53.5,48.0,57.0,51.0,-99.9,98,95,92,30.21,29.95,3,0,6,0.30
2013-3-31,64.0,57.2,48.0,59.0,54.9,46.0,98,93,78,29.99,29.89,3,0,7,0.06
2013-4-1,72.0,55.1,41.0,50.0,44.2,40.0,98,71,38,30.15,29.95,5,0,10,0.01
2013-4-2,53.0,46.6,40.0,41.0,33.0,27.0,91,61,41,30.28,30.12,7,2,14,0.18
2013-4-3,50.0,45.3,40.0,38.0,31.3,24.0,85,59,40,30.24,30.14,8,2,15,0.23
2013-4-4,49.0,44.9,41.0,46.0,41.4,30.0,96,89,48,30.14,29.99,3,0,9,0.42
2013-4-5,73.0,54.7,43.0,47.0,41.2,34.0,97,68,26,30.19,30.06,3,0,8,0.10
2013-4-6,77.0,59.4,42.0,46.0,40.7,33.0,96,58,22,30.13,29.95,4,1,11,0.00
2013-4-7,73.0,63.4,56.0,57.0,50.8,43.0,85,65,47,30.07,29.94,3,1,9,0.00
2013-4-8,81.0,68.6,56.0,60.0,56.2,51.0,83,66,42,30.02,29.89,3,1,12,0.00
2013-4-9,83.0,73.5,65.0,67.0,63.6,58.0,85,72,56,30.03,29.90,3,1,9,0.00
2013-4-10,86.0,77.4,71.0,67.0,65.2,62.0,83,67,48,29.98,29.71,4,1,12,0.01
2013-4-11,75.0,56.3,44.0,67.0,53.4,42.0,95,90,69,29.83,29.72,3,0,12,2.52
2013-4-12,70.0,53.7,38.0,48.0,42.7,37.0,98,72,38,30.02,29.83,4,0,13,0.01
2013-4-13,78.0,58.7,43.0,49.0,42.9,38.0,95,62,25,30.13,29.95,3,0,9,0.00
2013-4-14,70.0,61.1,52.0,56.0,51.6,46.0,88,72,53,29.95,29.78,4,1,11,0.00
2013-4-15,85.0,68.7,56.0,63.0,58.6,53.0,93,73,42,29.96,29.84,3,1,8,0.00
2013-4-16,87.0,76.8,68.0,71.0,68.4,63.0,89,76,56,30.08,29.94,3,1,8,0.00
2013-4-17,89.0,77.6,67.0,72.0,68.1,65.0,96,74,48,30.11,29.88,3,1,10,0.00
2013-4-18,82.0,71.3,47.0,68.0,61.8,43.0,93,74,50,29.89,29.62,3,1,16,1.73
2013-4-19,58.0,47.5,41.0,44.0,35.7,32.0,92,65,41,30.16,29.87,3,1,11,1.74
2013-4-20,73.0,54.1,36.0,45.0,37.4,32.0,97,61,24,30.28,30.16,2,0,9,0.00
2013-4-21,71.0,57.6,42.0,43.0,37.9,32.0,86,52,24,30.37,30.20,5,1,11,0.00
2013-4-22,79.0,61.5,43.0,52.0,45.7,41.0,95,61,33,30.23,30.04,3,0,8,0.00
2013-4-23,66.0,59.8,55.0,60.0,55.1,51.0,88,85,80,30.09,30.03,1,0,6,0.00
2013-4-24,53.0,45.1,40.0,41.0,40.1,38.0,94,83,64,30.32,30.24,1,0,3,1.08
2013-4-25,73.0,53.0,35.0,45.0,39.2,34.0,97,67,27,30.41,30.30,2,0,5,0.03
2013-4-26,69.0,55.4,47.0,52.0,46.1,41.0,89,73,37,30.44,30.24,4,1,11,0.09
2013-4-27,75.0,62.4,53.0,67.0,58.3,49.0,95,86,75,30.25,29.90,3,0,8,0.28
2013-4-28,72.0,62.3,52.0,60.0,55.4,49.0,94,79,55,30.00,29.95,2,0,6,0.06
2013-4-29,84.0,64.4,46.0,59.0,53.3,45.0,98,72,37,30.04,29.90,1,0,4,0.00
2013-4-30,86.0,69.1,51.0,61.0,54.7,50.0,97,65,34,29.99,29.91,3,0,6,0.00
2013-5-1,81.0,69.2,59.0,65.0,60.3,55.0,88,75,56,30.08,29.96,3,0,10,0.00
2013-5-2,71.0,64.8,62.0,63.0,60.6,58.0,96,87,68,30.13,30.02,2,0,4,0.22
2013-5-3,63.0,49.9,38.0,62.0,48.5,36.0,97,94,90,30.02,29.91,2,0,9,1.71
2013-5-4,61.0,46.0,34.0,45.0,39.5,33.0,98,81,48,30.00,29.90,4,0,7,0.06
2013-5-5,65.0,51.7,45.0,50.0,46.3,44.0,97,83,53,29.95,29.88,3,0,9,0.79
2013-5-6,66.0,58.1,52.0,57.0,54.1,50.0,95,87,70,29.97,29.88,1,0,5,0.03
2013-5-7,78.0,63.5,50.0,61.0,55.5,49.0,98,78,47,30.04,29.96,3,0,6,0.01
2013-5-8,86.0,68.7,51.0,64.0,56.7,50.0,98,70,38,30.10,30.02,1,0,5,0.00
2013-5-9,83.0,70.0,56.0,65.0,60.4,55.0,97,74,47,30.10,29.98,3,0,9,0.00
2013-5-10,75.0,66.5,63.0,70.0,62.4,-99.9,97,91,77,29.99,29.89,2,0,7,1.61
2013-5-11,76.0,65.3,58.0,64.0,57.1,-99.9,97,79,50,30.09,29.95,2,0,5,0.25
2013-5-12,72.0,59.7,47.0,56.0,40.1,31.0,91,53,25,30.25,30.09,3,0,8,0.00
2013-5-13,80.0,61.8,43.0,53.0,46.4,41.0,96,63,32,30.29,30.15,2,0,6,0.00
2013-5-14,90.0,73.2,57.0,60.0,54.8,50.0,82,55,31,30.16,30.04,3,1,12,0.00
2013-5-15,87.0,76.2,67.0,58.0,55.7,54.0,65,51,32,30.09,29.98,3,0,11,0.00
2013-5-16,80.0,66.2,64.0,66.0,40.3,-99.9,93,72,55,30.03,29.93,1,0,5,0.01
2013-5-17,83.0,70.2,66.0,70.0,61.0,-99.9,95,83,59,29.97,29.91,4,0,10,0.15
2013-5-18,88.0,75.4,64.0,75.0,70.1,63.0,97,85,65,30.01,29.93,1,0,7,0.03
2013-5-19,91.0,80.5,72.0,73.0,69.6,66.0,94,72,45,30.00,29.89,2,0,11,0.00
2013-5-20,90.0,80.7,72.0,72.0,70.5,69.0,92,72,54,29.98,29.85,2,1,10,0.00
2013-5-21,78.0,70.5,66.0,71.0,67.4,64.0,97,90,77,30.01,29.81,4,0,11,3.93
2013-5-22,83.0,70.4,63.0,67.0,63.5,61.0,97,81,52,29.95,29.79,3,0,10,2.74
2013-5-23,86.0,73.4,61.0,64.0,61.6,57.0,96,69,45,30.14,29.93,2,0,7,0.00
2013-5-24,77.0,65.5,56.0,58.0,52.2,48.0,88,64,36,30.32,30.14,6,2,12,0.00
2013-5-25,82.0,66.8,50.0,59.0,52.7,48.0,96,65,34,30.33,30.17,1,0,7,0.00
2013-5-26,88.0,72.4,56.0,61.0,57.0,53.0,96,63,32,30.22,30.10,2,0,6,0.00
2013-5-27,89.0,75.9,62.0,70.0,62.4,58.0,90,65,36,30.12,29.99,2,0,9,0.00
2013-5-28,91.0,79.7,71.0,70.0,64.1,58.0,83,61,35,30.07,29.98,2,0,8,0.00
2013-5-29,91.0,78.6,65.0,70.0,64.5,58.0,81,63,37,30.07,29.95,2,0,7,0.00
2013-5-30,77.0,75.1,74.0,68.0,66.9,66.0,81,76,69,30.00,29.98,1,0,4,0.00
2013-5-31,86.0,77.2,66.0,75.0,71.5,65.0,97,84,67,30.03,29.86,2,0,8,1.41
2013-6-1,84.0,73.4,68.0,74.0,70.2,65.0,96,90,70,30.02,29.86,3,0,8,0.38
2013-6-2,83.0,72.7,67.0,70.0,66.0,61.0,97,81,57,29.99,29.93,1,0,4,0.03
2013-6-3,84.0,71.0,60.0,66.0,61.7,59.0,97,75,48,30.04,29.94,4,0,8,0.00
2013-6-4,87.0,73.6,60.0,66.0,62.6,58.0,95,71,46,30.04,29.93,3,0,8,0.00
2013-6-5,89.0,76.9,67.0,76.0,68.9,63.0,91,77,59,29.97,29.82,3,0,7,0.00
2013-6-6,87.0,76.3,68.0,70.0,67.6,65.0,96,76,54,29.87,29.78,2,0,4,0.01
2013-6-7,73.0,73.0,73.0,67.0,67.0,67.0,81,81,81,29.83,29.83,0,0,0,0.00
2013-6-9,74.0,71.2,70.0,70.0,68.9,68.0,96,93,88,29.91,29.88,0,0,3,0.00
2013-6-10,95.0,80.7,68.0,73.0,67.7,63.0,98,69,35,29.95,29.88,4,1,11,0.01
2013-6-11,100.0,85.2,73.0,74.0,71.2,68.0,90,66,39,30.05,29.95,2,0,8,0.00
2013-6-12,97.0,88.0,76.0,77.0,74.1,71.0,87,65,47,30.07,29.93,3,0,10,0.00
2013-6-13,97.0,84.7,72.0,76.0,70.9,64.0,80,65,39,29.98,29.90,4,1,11,0.00
2013-6-14,88.0,76.5,65.0,66.0,62.3,58.0,95,65,39,30.07,29.96,6,1,11,0.00
2013-6-15,93.0,78.2,63.0,69.0,64.3,61.0,96,67,38,30.09,29.98,1,0,5,0.00
2013-6-16,93.0,79.2,69.0,74.0,69.9,67.0,95,75,48,30.07,29.96,1,0,6,0.00
2013-6-17,86.0,75.8,71.0,75.0,71.5,69.0,97,87,63,30.01,29.86,3,0,9,1.51
2013-6-18,86.0,74.8,69.0,73.0,69.7,68.0,98,86,60,30.00,29.85,3,0,5,1.54
2013-6-19,94.0,76.3,67.0,73.0,68.7,66.0,97,81,41,30.06,29.97,3,0,8,0.61
2013-6-20,94.0,78.1,67.0,74.0,68.6,65.0,98,78,39,30.15,30.06,2,0,5,0.62
2013-6-22,93.0,87.8,77.0,73.0,70.2,68.0,82,57,46,30.16,30.03,1,0,5,0.00
2013-6-23,94.0,82.1,71.0,72.0,69.3,66.0,91,68,44,30.13,30.03,1,0,4,0.00
2013-6-24,97.0,83.9,73.0,75.0,72.5,70.0,93,71,45,30.15,30.02,1,0,5,0.00
2013-6-25,94.0,84.0,74.0,76.0,72.2,68.0,92,70,47,30.10,29.96,2,0,8,0.00
2013-6-26,95.0,84.5,74.0,76.0,71.1,68.0,91,67,43,30.02,29.87,3,1,13,0.00
2013-6-27,102.0,87.7,77.0,79.0,74.1,68.0,81,66,44,29.94,29.83,3,1,8,0.00
2013-6-28,93.0,79.7,71.0,77.0,71.9,69.0,96,79,51,29.93,29.73,3,0,10,0.85
2013-6-29,92.0,80.1,66.0,70.0,64.4,58.0,94,62,34,29.79,29.70,3,0,11,0.02
2013-6-30,83.0,73.5,65.0,67.0,64.0,62.0,90,73,53,29.85,29.73,1,0,6,0.00
2013-7-1,84.0,72.4,66.0,69.0,64.7,60.0,94,78,54,29.95,29.83,1,0,6,0.01
2013-7-2,87.0,74.6,62.0,66.0,62.6,60.0,94,69,44,30.06,29.93,2,0,7,0.01
2013-7-3,87.0,73.5,63.0,68.0,64.1,62.0,96,75,44,30.12,30.03,2,0,5,0.03
2013-7-4,89.0,76.6,64.0,72.0,67.8,63.0,96,76,50,30.07,29.97,6,1,11,0.01
2013-7-5,87.0,74.5,65.0,73.0,68.6,63.0,96,83,58,30.09,29.98,4,1,8,0.89
2013-7-6,92.0,76.9,65.0,73.0,68.9,63.0,96,79,49,30.09,29.98,1,0,5,0.01
2013-7-7,91.0,80.7,70.0,75.0,71.7,68.0,96,76,53,30.12,30.01,2,0,6,0.00
2013-7-8,94.0,79.8,72.0,77.0,71.7,-99.9,96,80,51,30.17,30.08,2,0,5,0.00
2013-7-9,97.0,85.3,74.0,77.0,73.2,69.0,95,70,42,30.15,30.02,3,0,6,0.00
2013-7-10,99.0,85.0,78.0,77.0,74.1,72.0,85,71,44,30.06,29.89,1,0,4,0.00
2013-7-11,97.0,84.5,75.0,78.0,71.9,64.0,89,68,45,29.98,29.91,3,0,7,0.00
2013-7-12,90.0,78.2,66.0,67.0,63.4,60.0,82,62,42,30.04,29.96,4,1,12,0.00
2013-7-13,90.0,75.4,62.0,65.0,61.8,59.0,92,66,39,30.05,29.97,5,1,11,0.00
2013-7-14,89.0,76.7,66.0,72.0,68.6,63.0,92,78,54,30.10,29.98,5,1,15,0.00
2013-7-15,92.0,79.5,72.0,78.0,72.8,70.0,95,81,56,30.21,30.09,4,0,9,0.07
2013-7-16,93.0,82.1,72.0,75.0,72.2,70.0,96,74,49,30.28,30.19,6,0,9,0.07
2013-7-17,98.0,84.2,71.0,76.0,72.7,69.0,96,71,43,30.32,30.17,3,0,8,0.00
2013-7-18,94.0,78.6,72.0,80.0,74.1,71.0,97,87,57,30.21,30.04,4,0,8,0.38
2013-7-19,94.0,80.1,71.0,76.0,72.3,70.0,98,80,51,30.10,29.96,2,0,5,0.07
2013-7-20,95.0,82.5,72.0,76.0,71.2,-99.9,95,72,48,29.99,29.86,2,0,9,0.00
2013-7-21,94.0,84.1,74.0,77.0,72.5,69.0,93,70,44,29.98,29.89,3,0,12,0.00
2013-7-22,88.0,78.5,69.0,78.0,72.7,67.0,97,83,60,29.98,29.88,4,0,10,3.23
2013-7-23,93.0,79.6,70.0,77.0,73.9,68.0,96,84,57,30.02,29.85,3,0,7,0.34
2013-7-24,88.0,79.7,74.0,77.0,73.5,69.0,94,82,61,29.98,29.87,1,0,4,0.08
2013-7-25,87.0,75.2,64.0,70.0,64.5,62.0,94,72,47,30.09,29.98,3,0,5,0.01
2013-7-26,87.0,73.7,62.0,68.0,65.2,61.0,97,77,49,30.09,29.98,1,0,3,0.00
2013-7-27,90.0,77.4,70.0,71.0,68.0,65.0,93,75,50,30.02,29.91,2,0,5,0.00
2013-7-28,83.0,72.9,67.0,68.0,64.3,61.0,89,76,53,30.09,29.97,4,0,6,0.00
2013-7-29,89.0,76.1,65.0,70.0,65.8,62.0,92,72,50,30.16,30.07,4,0,7,0.00
2013-7-30,86.0,78.1,71.0,75.0,70.5,66.0,88,78,63,30.15,30.03,1,0,8,0.01
2013-7-31,92.0,77.3,73.0,78.0,73.1,71.0,97,87,60,30.08,29.94,3,0,14,0.66
2013-8-1,91.0,76.6,71.0,75.0,71.1,69.0,97,84,57,30.06,29.99,2,0,6,0.01
2013-8-2,93.0,84.3,70.0,72.0,69.7,68.0,95,64,45,30.06,29.97,1,0,4,0.00
2013-8-3,84.0,77.0,72.0,76.0,72.3,69.0,95,86,76,30.09,29.96,2,0,7,0.03
2013-8-4,92.0,79.8,69.0,77.0,72.1,68.0,98,80,54,30.13,30.05,4,0,6,0.01
2013-8-5,83.0,75.6,70.0,76.0,71.9,68.0,96,89,74,30.08,29.93,1,0,4,0.76
2013-8-6,86.0,79.4,74.0,78.0,75.0,72.0,97,87,73,29.98,29.89,4,0,9,0.04
2013-8-7,95.0,83.0,74.0,79.0,75.5,72.0,95,80,54,29.97,29.88,2,0,6,0.00
2013-8-8,97.0,85.6,77.0,79.0,76.6,75.0,96,77,49,29.98,29.88,1,0,4,0.00
2013-8-9,99.0,86.2,75.0,79.0,75.5,72.0,95,73,45,30.03,29.94,2,0,6,0.00
2013-8-10,94.0,81.6,75.0,77.0,74.4,72.0,95,80,56,30.15,30.02,2,0,4,0.00
2013-8-11,91.0,77.7,74.0,78.0,74.5,72.0,97,90,64,30.15,30.06,2,0,5,1.03
2013-8-12,94.0,81.3,72.0,79.0,74.9,70.0,97,83,57,30.08,29.95,3,0,9,0.09
2013-8-13,87.0,76.3,70.0,77.0,70.4,-99.9,98,86,65,30.03,29.94,2,0,5,0.09
2013-8-14,81.0,72.5,67.0,69.0,60.8,-99.9,88,70,50,30.10,29.98,4,1,10,0.00
2013-8-15,85.0,64.6,57.0,61.0,42.4,-99.9,92,63,44,30.10,30.02,2,0,6,0.00
2013-8-16,85.0,69.7,60.0,69.0,61.0,-99.9,94,79,55,30.07,30.01,4,0,8,0.00
2013-8-17,82.0,71.5,66.0,72.0,65.8,-99.9,96,85,68,30.11,30.03,2,0,6,0.01
2013-8-18,85.0,73.5,65.0,71.0,67.9,64.0,97,84,60,30.15,30.05,3,0,5,0.01
2013-8-19,88.0,71.8,65.0,72.0,57.7,-99.9,98,81,57,30.12,30.02,4,0,6,0.00
2013-8-20,91.0,77.1,68.0,75.0,69.6,-99.9,97,82,52,30.11,30.03,3,0,6,0.00
2013-8-21,96.0,80.6,70.0,77.0,72.3,69.0,98,79,42,30.16,30.06,2,0,5,0.00
2013-8-22,95.0,82.6,72.0,77.0,73.4,70.0,97,76,52,30.15,30.02,2,0,5,0.00
2013-8-23,95.0,81.7,70.0,77.0,72.2,69.0,97,75,47,30.09,30.00,5,0,8,0.00
2013-8-24,93.0,80.7,71.0,77.0,71.6,-99.9,96,78,53,30.16,30.05,5,1,8,0.03
2013-8-25,91.0,79.5,73.0,76.0,73.1,71.0,95,82,57,30.28,30.16,4,0,6,0.03
2013-8-26,92.0,79.3,69.0,72.0,69.4,67.0,98,75,48,30.28,30.14,2,0,6,0.00
2013-8-27,93.0,76.5,66.0,68.0,66.1,64.0,96,74,43,30.17,30.09,1,0,5,0.00
2013-8-28,96.0,88.0,74.0,71.0,67.9,64.0,89,54,37,30.11,30.03,1,0,5,0.00
2013-8-29,99.0,82.5,69.0,74.0,70.4,68.0,97,71,41,30.10,29.99,2,0,5,0.00
2013-8-30,100.0,83.9,72.0,75.0,72.2,70.0,97,72,39,30.04,29.91,2,0,4,0.00
2013-8-31,101.0,84.4,72.0,74.0,70.1,-99.9,94,67,40,29.94,29.83,3,0,8,0.00
2013-9-1,97.0,80.9,74.0,75.0,72.4,70.0,91,76,46,29.93,29.83,7,0,15,0.08
2013-9-2,93.0,80.7,74.0,76.0,73.7,72.0,95,81,53,29.95,29.84,2,0,10,0.08
2013-9-3,92.0,78.4,68.0,73.0,67.2,62.0,97,72,37,30.04,29.93,3,0,8,0.00
2013-9-4,90.0,75.1,62.0,70.0,64.9,61.0,97,74,46,30.14,30.03,4,0,9,0.00
2013-9-5,93.0,75.3,62.0,70.0,65.1,61.0,96,74,40,30.17,30.10,3,0,6,0.00
2013-9-6,93.0,76.7,65.0,70.0,65.6,58.0,95,72,31,30.16,30.05,3,0,6,0.00
2013-9-7,98.0,79.4,65.0,71.0,65.5,-99.9,97,69,36,30.10,29.97,3,0,5,0.00
2013-9-8,100.0,82.7,67.0,73.0,69.5,66.0,97,69,35,30.01,29.90,1,0,4,0.00
2013-9-9,96.0,81.4,72.0,77.0,72.1,69.0,92,75,49,30.07,29.96,1,0,3,0.03
2013-9-10,100.0,81.9,71.0,75.0,71.8,69.0,96,74,39,30.15,30.04,2,0,8,0.03
2013-9-11,77.0,74.6,73.0,72.0,71.6,71.0,93,90,85,30.13,30.12,0,0,2,0.00
2013-9-12,96.0,86.2,74.0,73.0,71.3,69.0,91,63,43,30.08,29.94,2,0,6,0.25
2013-9-13,74.0,74.0,74.0,71.0,71.0,71.0,91,91,91,29.98,29.98,0,0,0,0.00
2013-9-15,91.0,72.0,51.0,61.0,55.6,50.0,97,64,27,30.11,30.06,2,0,5,0.00
2013-9-16,92.0,74.1,58.0,68.0,60.8,51.0,96,69,26,30.16,30.09,3,0,7,0.00
2013-9-17,94.0,77.1,65.0,69.0,65.9,63.0,96,72,39,30.17,30.04,3,0,5,0.00
2013-9-18,74.0,71.9,69.0,70.0,67.9,66.0,91,87,81,30.11,30.06,0,0,4,0.00
2013-9-19,95.0,79.7,67.0,73.0,68.3,65.0,97,72,41,30.11,29.97,2,0,7,0.00
2013-9-20,77.0,73.6,69.0,74.0,69.8,66.0,97,88,70,30.00,29.84,2,0,6,1.86
2013-9-21,80.0,68.4,58.0,69.0,58.5,-99.9,97,75,44,29.93,29.82,3,0,10,0.65
2013-9-22,79.0,64.3,52.0,57.0,54.2,51.0,97,73,43,29.97,29.88,4,1,9,0.01
2013-9-23,87.0,67.5,52.0,63.0,57.8,51.0,97,75,40,29.98,29.88,3,0,7,0.00
2013-9-24,78.0,69.7,62.0,72.0,67.1,60.0,97,92,80,29.93,29.82,1,0,6,0.04
2013-9-25,85.0,74.8,68.0,72.0,68.4,66.0,97,83,54,29.86,29.79,1,0,6,0.01
2013-9-26,89.0,73.9,63.0,71.0,66.3,62.0,98,80,49,30.01,29.85,3,0,7,0.01
2013-9-27,88.0,72.8,62.0,69.0,64.3,61.0,98,78,46,30.10,30.01,2,0,4,0.00
2013-9-28,88.0,72.2,61.0,64.0,59.5,-99.9,95,69,42,30.15,30.03,2,0,5,0.00
2013-9-29,69.0,66.5,65.0,65.0,62.1,59.0,97,86,74,30.08,29.97,1,0,5,0.27
2013-9-30,78.0,68.7,65.0,71.0,66.5,64.0,98,93,78,30.00,29.94,1,0,4,0.40
2013-10-1,76.0,72.9,72.0,71.0,69.8,69.0,93,90,82,30.06,30.03,0,0,1,0.11
2013-10-2,87.0,74.9,67.0,71.0,67.9,66.0,97,81,55,30.12,30.03,1,0,4,0.02
2013-10-3,91.0,75.8,64.0,73.0,68.3,63.0,98,80,50,30.08,29.97,1,0,6,0.00
2013-10-4,88.0,75.7,68.0,75.0,70.9,67.0,97,86,63,30.08,29.99,1,0,6,0.00
2013-10-5,90.0,79.1,71.0,74.0,71.4,69.0,96,79,54,30.04,29.89,1,0,7,0.03
2013-10-6,75.0,63.4,56.0,72.0,55.3,47.0,95,77,47,30.01,29.89,2,0,7,0.85
2013-10-7,73.0,57.5,46.0,53.0,49.6,45.0,97,77,48,30.13,29.98,3,0,7,0.06
2013-10-8,75.0,59.3,47.0,56.0,50.8,46.0,97,77,45,30.17,30.07,5,1,10,0.00
2013-10-9,82.0,65.0,53.0,66.0,59.2,51.0,95,83,59,30.16,30.07,2,0,5,0.00
2013-10-10,84.0,67.3,57.0,64.0,60.1,56.0,97,81,46,30.12,30.03,2,0,5,0.00
2013-10-11,87.0,70.1,56.0,68.0,60.5,55.0,98,75,43,30.07,29.98,1,0,4,0.00
2013-10-12,78.0,64.6,57.0,69.0,61.0,-99.9,98,91,74,30.14,30.00,1,0,4,0.20
2013-10-13,81.0,68.5,61.0,67.0,62.7,56.0,98,83,59,30.28,30.14,3,0,8,0.01
2013-10-14,84.0,67.6,54.0,65.0,59.3,51.0,90,77,49,30.24,30.07,4,0,6,0.00
2013-10-15,73.0,68.9,66.0,67.0,64.7,63.0,96,86,76,30.08,29.97,1,0,5,0.27
2013-10-16,67.0,61.1,56.0,66.0,59.4,55.0,98,94,84,30.05,29.96,2,0,6,0.91
2013-10-17,71.0,59.4,49.0,58.0,54.0,48.0,96,84,51,30.04,29.97,2,0,6,0.03
2013-10-18,75.0,57.6,43.0,56.0,49.5,42.0,98,78,41,30.09,29.96,1,0,5,0.01
2013-10-19,62.0,52.4,41.0,55.0,46.8,-99.9,96,84,56,30.10,29.93,1,0,8,0.05
2013-10-20,72.0,51.2,37.0,48.0,42.4,36.0,98,77,38,30.14,30.01,1,0,5,0.01
2013-10-21,76.0,56.0,40.0,54.0,46.9,39.0,98,76,39,30.09,29.98,2,0,8,0.01
2013-10-22,70.0,57.9,50.0,53.0,48.0,41.0,94,74,36,30.09,29.92,2,0,7,0.05
2013-10-23,64.0,51.8,43.0,48.0,41.1,38.0,94,69,42,30.18,29.96,1,0,5,0.01
2013-10-24,67.0,50.7,41.0,49.0,42.2,35.0,96,75,46,30.39,30.12,1,0,8,0.00
2013-10-25,58.0,45.8,33.0,36.0,32.1,28.0,93,62,36,30.54,30.34,4,1,11,0.00
2013-10-26,65.0,48.8,34.0,49.0,38.6,-99.9,96,73,44,30.35,30.11,2,0,9,0.00
2013-10-27,70.0,58.8,50.0,59.0,54.3,47.0,95,86,66,30.12,30.03,1,0,4,0.00
2013-10-28,72.0,60.5,55.0,60.0,55.1,-99.9,96,86,60,30.24,30.08,1,0,4,0.00
2013-10-29,77.0,64.2,52.0,67.0,60.1,51.0,98,87,67,30.26,30.13,1,0,6,0.00
2013-10-30,76.0,68.1,59.0,67.0,63.2,58.0,97,85,72,30.20,29.99,2,0,8,0.00
2013-10-31,70.0,67.6,63.0,68.0,64.6,52.0,97,90,64,29.99,29.59,4,1,13,1.92
2013-11-1,74.0,59.7,47.0,55.0,49.9,46.0,98,73,39,29.91,29.77,5,0,9,0.05
2013-11-2,62.0,51.3,41.0,51.0,42.9,-99.9,96,77,50,30.22,29.91,2,0,8,0.01
2013-11-3,65.0,46.5,35.0,45.0,39.1,34.0,98,79,40,30.33,30.17,3,0,6,0.00
2013-11-4,68.0,53.5,41.0,50.0,44.6,39.0,95,74,45,30.31,30.20,2,0,6,0.00
2013-11-5,74.0,61.5,52.0,54.0,49.2,44.0,83,65,48,30.31,30.16,3,0,7,0.00
2013-11-6,63.0,57.8,46.0,60.0,52.0,43.0,96,82,67,30.25,30.05,1,0,7,0.34
2013-11-7,59.0,45.5,37.0,43.0,36.9,33.0,95,75,38,30.42,30.27,2,0,7,0.11
2013-11-8,68.0,46.3,31.0,43.0,36.6,30.0,98,74,30,30.41,30.23,3,0,5,0.01
2013-11-9,62.0,49.3,40.0,46.0,39.8,-99.9,93,74,46,30.31,30.21,1,0,5,0.01
2013-11-10,70.0,52.6,41.0,50.0,43.3,39.0,97,74,40,30.37,30.27,4,0,8,0.00
2013-11-11,74.0,53.1,36.0,49.0,42.5,35.0,97,72,34,30.32,30.17,2,0,6,0.00
2013-11-12,53.0,41.6,31.0,49.0,32.3,22.0,94,71,45,30.68,30.23,4,1,15,0.00
2013-11-13,52.0,37.1,27.0,27.0,24.0,21.0,93,63,30,30.73,30.46,3,0,9,0.00
2013-11-14,27.0,25.8,25.0,26.0,24.6,24.0,94,94,93,30.46,30.42,0,0,0,0.00
2013-11-19,53.0,44.7,34.0,32.0,29.5,28.0,88,57,38,30.32,30.18,5,1,11,0.00
2013-11-20,68.0,46.7,30.0,41.0,35.4,28.0,95,69,36,30.20,30.08,2,0,6,0.00
2013-11-21,69.0,58.6,49.0,59.0,52.1,41.0,96,80,63,30.22,30.12,3,1,9,0.63
2013-11-22,60.0,53.5,44.0,59.0,51.7,41.0,97,94,89,30.40,30.17,2,0,9,0.53
2013-11-23,47.0,40.8,30.0,41.0,30.7,-99.9,92,71,41,30.58,30.37,4,1,12,0.02
2013-11-24,38.0,30.0,23.0,20.0,17.5,15.0,74,60,41,30.66,30.44,6,2,15,0.02
2013-11-25,36.0,34.6,32.0,34.0,26.7,17.0,94,74,54,30.45,30.15,2,0,7,0.18
2013-11-26,36.0,36.0,36.0,35.0,34.7,34.0,95,95,94,30.16,30.06,1,0,4,0.24
2013-12-3,60.0,57.9,56.0,57.0,56.4,55.0,98,95,90,29.72,29.69,1,0,4,0.00
2013-12-4,75.0,67.5,58.0,64.0,62.2,57.0,98,84,67,29.84,29.70,5,1,14,0.00
2013-12-5,70.0,50.1,35.0,67.0,46.9,33.0,95,89,80,30.15,29.83,2,0,9,0.71
2013-12-6,35.0,31.4,26.0,33.0,29.4,24.0,94,93,91,30.45,30.08,4,1,12,1.61
2013-12-7,29.0,25.7,22.0,27.0,22.2,-99.9,93,90,88,30.58,30.33,4,1,12,0.01
2013-12-8,34.0,32.5,29.0,33.0,31.3,27.0,96,95,93,30.35,30.08,4,0,6,0.09
2013-12-9,34.0,32.4,31.0,32.0,29.7,29.0,96,90,84,30.32,30.16,4,0,8,0.04
2013-12-10,44.0,31.2,24.0,30.0,25.5,20.0,95,80,55,30.46,30.21,1,0,4,0.03
2013-12-11,24.0,23.3,23.0,23.0,22.3,22.0,95,95,95,30.43,30.40,0,0,0,0.03
2013-12-15,42.0,34.8,31.0,32.0,29.4,28.0,92,81,65,30.30,30.16,2,0,7,0.02
2013-12-16,59.0,43.7,31.0,40.0,35.0,29.0,94,74,47,30.24,30.14,4,1,13,0.01
2013-12-17,62.0,46.0,32.0,41.0,36.3,30.0,93,70,44,30.32,30.17,4,0,10,0.01
2013-12-18,62.0,43.3,27.0,38.0,31.7,26.0,96,69,32,30.37,30.14,2,0,6,0.00
2013-12-19,61.0,53.8,45.0,53.0,45.4,38.0,80,73,67,30.17,29.96,2,1,9,0.00
2013-12-20,67.0,63.9,59.0,65.0,59.5,53.0,94,86,77,30.00,29.83,3,1,13,0.21
2013-12-21,75.0,66.4,55.0,67.0,60.8,-99.9,96,85,71,29.83,29.49,6,2,14,1.29
2013-12-22,56.0,49.6,38.0,54.0,46.5,32.0,97,89,81,30.25,29.72,2,0,9,1.02
2013-12-23,40.0,34.2,26.0,32.0,27.6,24.0,92,77,61,30.52,30.25,2,0,7,0.01
2013-12-24,36.0,28.4,23.0,26.0,20.0,16.0,95,73,45,30.63,30.44,5,0,10,0.00
2013-12-25,53.0,34.0,20.0,32.0,23.8,18.0,93,70,35,30.45,30.32,3,0,6,0.00
2013-12-26,52.0,35.5,26.0,33.0,27.9,25.0,97,77,40,30.46,30.36,4,0,9,0.00
2013-12-27,59.0,38.1,24.0,32.0,27.9,23.0,96,71,33,30.49,30.38,1,0,2,0.00
2013-12-28,46.0,38.2,30.0,41.0,33.2,-99.9,95,85,72,30.37,29.99,1,0,5,0.08
2013-12-29,56.0,45.2,36.0,44.0,39.6,30.0,98,82,60,30.22,29.97,3,0,7,0.17
2013-12-30,36.0,32.0,30.0,31.0,26.3,24.0,83,79,76,30.37,30.21,2,0,9,0.01
2013-12-31,52.0,33.6,21.0,30.0,25.7,19.0,95,76,42,30.48,30.34,2,0,5,0.00
2014-1-1,57.0,40.9,25.0,44.0,32.4,23.0,96,74,42,30.33,29.97,2,0,6,0.03
2014-1-2,49.0,34.8,23.0,48.0,28.5,15.0,95,78,63,30.47,29.90,3,1,10,0.34